Terminal Aerodrome Forecast
Issued by NWS Sterling, VA

Current Version | Previous Version | Text Only | Print | Product List | Glossary Off
Versions: 1 2 3 4 5 6 7 8 9 10 11 12 13 14 15 16 17

000
FTUS41 KLWX 222300 RRA
TAFMRB
TAF
KMRB 222341Z 2300/2324 13007KT P6SM SCT030 BKN050
     FM230400 12010KT 3SM BR SCT030 OVC045
     FM231100 13008KT 2SM BR OVC003
     FM231400 10006KT P6SM OVC008
     FM231600 09005KT P6SM OVC015
     FM231900 09006KT P6SM OVC035
     FM232200 08010KT P6SM BKN050=

USA.gov is the U.S. government's official web portal to all federal, state and local government web resources and services.